Time;durP1;ratioP1;P1;durP2;ratioP2;P2;SDS_P1;SDS_P2;PMS_P1;PMS_P2;Temp;Humidity;BMP_temperature;BMP_pressure;BME280_temperature;BME280_humidity;BME280_pressure;Samples;Min_cycle;Max_cycle;Signal;HPM_P1;HPM_P2
2022/01/04 00:00:12;;;;;;;;;4.25;3.00;;;;;12.72;92.21;100101.06;5056938;28;45507;-68
2022/01/04 00:02:37;;;;;;;;;2.00;2.00;;;;;12.72;92.56;100101.91;5052650;28;45577;-68
2022/01/04 00:05:04;;;;;;;;;4.00;4.00;;;;;12.69;95.54;100093.38;5059049;28;45491;-69
2022/01/04 00:07:30;;;;;;;;;2.25;2.25;;;;;12.70;93.05;100080.06;5058833;28;45311;-69
2022/01/04 00:09:55;;;;;;;;;5.50;2.00;;;;;12.70;92.75;100072.16;5065301;28;45304;-69
2022/01/04 00:15:06;;;;;;;;;2.75;2.75;;;;;12.74;93.17;100068.41;5084090;28;44991;-69
2022/01/04 00:17:31;;;;;;;;;3.00;2.25;;;;;12.75;92.86;100067.47;5057251;28;45303;-68
2022/01/04 00:19:57;;;;;;;;;2.25;2.00;;;;;12.75;92.15;100046.38;5053452;28;45605;-69
2022/01/04 00:22:22;;;;;;;;;2.00;2.00;;;;;12.74;92.30;100049.09;5053728;28;45604;-68
2022/01/04 00:24:48;;;;;;;;;1.50;1.25;;;;;12.70;94.77;100043.16;5053472;28;45386;-69
2022/01/04 00:27:13;;;;;;;;;1.00;1.00;;;;;12.65;95.60;100039.13;5052184;28;48330;-69
2022/01/04 00:29:38;;;;;;;;;2.00;0.75;;;;;12.59;96.98;100024.53;5054789;28;45743;-68
2022/01/04 00:32:04;;;;;;;;;3.00;1.75;;;;;12.56;97.27;100018.59;5057738;28;45651;-69
2022/01/04 00:34:30;;;;;;;;;0.25;0.25;;;;;12.54;96.02;100013.44;5057225;28;45502;-68
2022/01/04 00:36:55;;;;;;;;;1.00;1.00;;;;;12.51;95.75;100003.91;5056601;28;45434;-68
2022/01/04 00:39:20;;;;;;;;;0.00;0.00;;;;;12.50;95.83;100001.38;5063309;28;45577;-69
2022/01/04 00:41:46;;;;;;;;;1.00;1.00;;;;;12.52;96.14;99987.16;5063933;28;46091;-68
2022/01/04 00:44:11;;;;;;;;;2.00;1.00;;;;;12.49;95.59;99979.47;5057619;28;45373;-68
2022/01/04 00:46:36;;;;;;;;;0.00;0.00;;;;;12.46;95.83;99969.09;5065640;28;45438;-68
2022/01/04 00:49:11;;;;;;;;;0.00;0.00;;;;;12.47;95.48;99969.94;5061448;28;45734;-68
2022/01/04 00:51:36;;;;;;;;;0.00;0.00;;;;;12.46;95.49;99960.34;5063866;28;45407;-68
2022/01/04 00:54:02;;;;;;;;;2.00;1.00;;;;;12.46;95.16;99950.66;5054037;28;45474;-68
2022/01/04 00:56:28;;;;;;;;;1.50;0.00;;;;;12.45;94.66;99950.75;5066204;28;45283;-68
2022/01/04 00:58:53;;;;;;;;;1.50;0.75;;;;;12.43;94.64;99940.31;5069562;28;45218;-68
2022/01/04 01:01:19;;;;;;;;;0.00;0.00;;;;;12.44;95.70;99931.47;5058555;28;46817;-69
2022/01/04 01:03:44;;;;;;;;;0.00;0.00;;;;;12.48;95.21;99937.41;5046495;28;45545;-68
2022/01/04 01:06:10;;;;;;;;;1.00;1.00;;;;;12.44;95.04;99920.94;5060196;28;45559;-68
2022/01/04 01:08:35;;;;;;;;;0.50;0.50;;;;;12.50;94.61;99917.06;5060842;28;45392;-68
2022/01/04 01:11:00;;;;;;;;;1.75;0.50;;;;;12.57;94.19;99910.44;5046881;28;45451;-68
2022/01/04 01:13:26;;;;;;;;;0.00;0.00;;;;;12.60;94.28;99902.34;5053174;28;45415;-69
2022/01/04 01:15:51;;;;;;;;;1.00;0.00;;;;;12.62;93.99;99900.44;5054487;28;45387;-68
2022/01/04 01:18:18;;;;;;;;;0.00;0.00;;;;;12.63;93.92;99896.84;5055259;28;45601;-69
2022/01/04 01:20:48;;;;;;;;;0.00;0.00;;;;;12.65;93.42;99894.16;5062612;28;46202;-69
2022/01/04 01:23:14;;;;;;;;;0.00;0.00;;;;;12.65;93.26;99884.44;5059284;28;45457;-69
2022/01/04 01:25:39;;;;;;;;;2.00;0.00;;;;;12.68;93.34;99881.59;5065582;28;45610;-68
2022/01/04 01:28:05;;;;;;;;;1.00;0.00;;;;;12.68;93.49;99886.84;5054931;28;49440;-68
2022/01/04 01:30:33;;;;;;;;;0.00;0.00;;;;;12.70;93.12;99878.88;5063161;28;46157;-68
2022/01/04 01:32:59;;;;;;;;;0.00;0.00;;;;;12.68;93.21;99865.78;5062233;28;45502;-68
2022/01/04 01:35:24;;;;;;;;;0.25;0.00;;;;;12.71;94.63;99865.59;5056242;28;48836;-68
2022/01/04 01:37:49;;;;;;;;;1.00;0.00;;;;;12.70;93.40;99861.25;5055131;28;45377;-68
2022/01/04 01:40:15;;;;;;;;;2.00;0.00;;;;;12.73;93.43;99858.41;5057702;28;45391;-68
2022/01/04 01:42:40;;;;;;;;;0.50;0.50;;;;;12.72;93.11;99855.88;5057836;28;45453;-68
2022/01/04 01:45:09;;;;;;;;;0.00;0.00;;;;;12.72;93.60;99848.81;5055094;28;45852;-68
2022/01/04 01:47:37;;;;;;;;;0.00;0.00;;;;;12.75;93.37;99840.72;5051200;28;45565;-68
2022/01/04 01:50:02;;;;;;;;;0.75;0.00;;;;;12.74;93.93;99828.47;5055523;28;46078;-69
2022/01/04 01:52:28;;;;;;;;;0.25;0.00;;;;;12.78;93.64;99832.59;5060261;28;45605;-68
2022/01/04 01:54:53;;;;;;;;;0.00;0.00;;;;;12.80;94.04;99824.59;5056090;28;45771;-68
2022/01/04 01:57:19;;;;;;;;;0.00;0.00;;;;;12.78;93.08;99821.19;5053834;28;45730;-68
2022/01/04 01:59:44;;;;;;;;;0.00;0.00;;;;;12.79;93.58;99815.84;5055815;28;45622;-69
2022/01/04 02:02:09;;;;;;;;;0.00;0.00;;;;;12.83;97.29;99808.56;5055628;28;45532;-68
2022/01/04 02:04:35;;;;;;;;;0.00;0.00;;;;;12.86;97.63;99810.16;5053943;28;46680;-69
2022/01/04 02:07:00;;;;;;;;;1.00;0.25;;;;;12.84;97.65;99794.41;5060358;28;45498;-68
2022/01/04 02:09:26;;;;;;;;;0.00;0.00;;;;;12.86;97.25;99789.06;5047773;28;45595;-68
2022/01/04 02:11:53;;;;;;;;;0.50;0.00;;;;;12.93;98.20;99806.97;5063754;28;45532;-68
2022/01/04 02:14:19;;;;;;;;;0.00;0.00;;;;;12.94;98.37;99792.84;5066195;28;45373;-68
2022/01/04 02:16:44;;;;;;;;;3.00;0.00;;;;;12.95;98.01;99786.66;5055025;28;45562;-69
2022/01/04 02:19:10;;;;;;;;;0.00;0.00;;;;;12.97;98.24;99783.91;5055988;28;45906;-68
2022/01/04 02:21:36;;;;;;;;;0.00;0.00;;;;;12.98;98.34;99785.59;5053490;28;45289;-68
2022/01/04 02:24:03;;;;;;;;;0.00;0.00;;;;;12.98;98.32;99778.50;5060309;28;45623;-68
2022/01/04 02:26:31;;;;;;;;;0.00;0.00;;;;;13.01;97.68;99772.19;5066060;28;45524;-68
2022/01/04 02:28:56;;;;;;;;;0.00;0.00;;;;;13.03;97.88;99770.28;5060125;28;46768;-68
2022/01/04 02:31:22;;;;;;;;;0.00;0.00;;;;;13.04;97.26;99764.06;5059669;28;45365;-69
2022/01/04 02:33:47;;;;;;;;;0.00;0.00;;;;;13.04;97.58;99761.41;5057088;28;45417;-68
2022/01/04 02:36:12;;;;;;;;;1.00;0.75;;;;;13.06;96.75;99749.81;5050675;28;45497;-69
2022/01/04 02:38:38;;;;;;;;;0.00;0.00;;;;;13.04;95.90;99732.41;5053471;28;62576;-69
2022/01/04 02:41:03;;;;;;;;;1.00;0.00;;;;;13.06;93.99;99720.81;5061025;28;45517;-68
2022/01/04 02:43:29;;;;;;;;;0.25;0.25;;;;;13.15;93.77;99723.75;5065140;28;45453;-68
2022/01/04 02:45:54;;;;;;;;;2.00;2.00;;;;;13.16;93.15;99714.91;5056222;28;45563;-68
2022/01/04 02:48:20;;;;;;;;;0.50;0.50;;;;;13.17;92.57;99711.31;5053247;28;46287;-69
2022/01/04 02:50:45;;;;;;;;;2.50;1.50;;;;;13.18;93.01;99707.72;5043033;28;45829;-69
2022/01/04 02:53:11;;;;;;;;;0.75;0.75;;;;;13.18;92.78;99705.91;5039474;28;45425;-69
2022/01/04 02:55:36;;;;;;;;;1.00;1.00;;;;;13.19;92.51;99694.41;5054128;28;45521;-68
2022/01/04 02:58:01;;;;;;;;;0.00;0.00;;;;;13.22;92.39;99696.88;5056691;28;46299;-68
2022/01/04 03:00:28;;;;;;;;;2.00;1.00;;;;;13.23;92.67;99681.88;5056232;28;45512;-68
2022/01/04 03:02:54;;;;;;;;;1.00;1.00;;;;;13.24;92.21;99676.50;5053921;28;45368;-69
2022/01/04 03:05:19;;;;;;;;;2.00;1.00;;;;;13.23;92.61;99672.16;5059923;28;45383;-68
2022/01/04 03:07:45;;;;;;;;;1.00;1.00;;;;;13.23;92.35;99673.97;5061812;28;50214;-68
2022/01/04 03:10:10;;;;;;;;;2.75;2.75;;;;;13.23;92.36;99664.25;5048640;28;45525;-68
2022/01/04 03:12:39;;;;;;;;;1.00;1.00;;;;;13.25;92.59;99657.06;5054092;28;45409;-69
2022/01/04 03:15:05;;;;;;;;;1.50;1.50;;;;;13.26;92.46;99658.78;5052670;28;45599;-69
2022/01/04 03:17:30;;;;;;;;;2.00;1.00;;;;;13.27;92.15;99651.69;5059737;28;45264;-69
2022/01/04 03:19:56;;;;;;;;;1.00;1.00;;;;;13.26;91.98;99653.50;5054936;28;45413;-69
2022/01/04 03:22:21;;;;;;;;;2.25;2.00;;;;;13.26;92.04;99650.88;5055176;28;46191;-69
2022/01/04 03:24:46;;;;;;;;;3.75;3.00;;;;;13.25;91.51;99646.50;5054651;28;45718;-68
2022/01/04 03:27:12;;;;;;;;;8.75;4.00;;;;;13.22;91.36;99630.91;5048941;28;57385;-68
2022/01/04 03:29:38;;;;;;;;;1.00;1.00;;;;;13.15;90.46;99634.91;5053729;28;45429;-68
2022/01/04 03:32:04;;;;;;;;;3.25;3.25;;;;;13.09;89.96;99635.34;5056017;28;45484;-68
2022/01/04 03:34:30;;;;;;;;;2.00;2.00;;;;;13.01;89.61;99627.13;5054854;28;45567;-68
2022/01/04 03:36:55;;;;;;;;;2.50;1.25;;;;;12.92;89.41;99625.13;5059986;28;51955;-69
2022/01/04 03:39:20;;;;;;;;;1.50;1.50;;;;;12.90;89.00;99633.16;5061092;28;45500;-68
2022/01/04 03:41:46;;;;;;;;;1.75;1.75;;;;;12.85;89.15;99626.53;5050540;28;45485;-69
2022/01/04 03:44:18;;;;;;;;;2.25;2.00;;;;;12.80;88.71;99608.41;5060335;28;45626;-68
2022/01/04 03:46:45;;;;;;;;;4.00;2.75;;;;;12.75;88.42;99611.34;5062819;28;46249;-68
2022/01/04 03:49:10;;;;;;;;;1.00;0.75;;;;;12.68;88.59;99612.72;5066289;28;45795;-68
2022/01/04 03:51:36;;;;;;;;;2.00;1.75;;;;;12.61;88.19;99618.53;5053630;28;45684;-68
2022/01/04 03:54:02;;;;;;;;;0.50;0.50;;;;;12.56;88.20;99610.94;5054538;28;45508;-68
2022/01/04 03:56:28;;;;;;;;;0.50;0.50;;;;;12.51;88.55;99608.63;5053266;28;45336;-68
2022/01/04 03:58:53;;;;;;;;;0.50;0.50;;;;;12.45;87.76;99602.94;5067029;28;45391;-68
2022/01/04 04:01:19;;;;;;;;;0.00;0.00;;;;;12.39;87.95;99601.56;5053835;28;45455;-68
2022/01/04 04:03:44;;;;;;;;;0.00;0.00;;;;;12.32;87.77;99605.56;5054099;28;45510;-68
2022/01/04 04:06:09;;;;;;;;;0.00;0.00;;;;;12.22;87.85;99599.25;5051476;28;45536;-69
2022/01/04 04:08:35;;;;;;;;;0.00;0.00;;;;;12.13;88.10;99607.75;5053471;28;45529;-68
2022/01/04 04:11:00;;;;;;;;;0.75;0.00;;;;;12.03;87.82;99594.34;5052999;28;45315;-68
2022/01/04 04:13:25;;;;;;;;;0.50;0.00;;;;;11.99;88.10;99603.41;5053562;28;45383;-68
2022/01/04 04:15:51;;;;;;;;;0.00;0.00;;;;;11.93;88.10;99607.28;5053274;28;49206;-68
2022/01/04 04:18:17;;;;;;;;;0.00;0.00;;;;;11.79;88.02;99583.63;5054229;28;45410;-69
2022/01/04 04:20:43;;;;;;;;;0.00;0.00;;;;;11.80;87.71;99593.25;5056631;28;45741;-69
2022/01/04 04:23:08;;;;;;;;;0.00;0.00;;;;;11.73;87.87;99599.84;5065407;28;45395;-69
2022/01/04 04:25:34;;;;;;;;;0.00;0.00;;;;;11.66;88.21;99607.28;5054544;28;45451;-68
2022/01/04 04:28:00;;;;;;;;;0.50;0.50;;;;;11.59;88.03;99608.66;5053953;28;45940;-68
2022/01/04 04:30:26;;;;;;;;;0.00;0.00;;;;;11.50;88.59;99609.25;5052622;28;45458;-68
2022/01/04 04:32:51;;;;;;;;;1.25;0.00;;;;;11.48;88.31;99605.84;5049368;28;45392;-68
2022/01/04 04:35:17;;;;;;;;;0.00;0.00;;;;;11.52;88.52;99614.41;5052655;28;45479;-69
2022/01/04 04:37:42;;;;;;;;;2.00;0.00;;;;;11.49;88.51;99613.66;5055828;28;45520;-68
2022/01/04 04:40:08;;;;;;;;;0.25;0.25;;;;;11.47;88.20;99614.69;5040861;28;45422;-68
2022/01/04 04:42:34;;;;;;;;;0.50;0.50;;;;;11.46;88.41;99616.47;5052429;28;45300;-68
2022/01/04 04:44:59;;;;;;;;;0.50;0.00;;;;;11.44;88.24;99615.75;5051948;28;46095;-68
2022/01/04 04:47:25;;;;;;;;;0.00;0.00;;;;;11.45;88.04;99616.59;5051778;28;45465;-68
2022/01/04 04:49:50;;;;;;;;;0.00;0.00;;;;;11.43;87.95;99606.16;5053060;28;45498;-69
2022/01/04 04:52:16;;;;;;;;;0.00;0.00;;;;;11.41;88.21;99612.44;5061955;28;45449;-69
2022/01/04 04:54:41;;;;;;;;;0.00;0.00;;;;;11.37;87.81;99622.31;5053041;28;49756;-68
2022/01/04 04:57:06;;;;;;;;;0.00;0.00;;;;;11.37;88.05;99632.00;5054961;28;45523;-69
2022/01/04 04:59:32;;;;;;;;;0.00;0.00;;;;;11.37;88.11;99650.41;5044717;28;45530;-69
2022/01/04 05:01:57;;;;;;;;;0.00;0.00;;;;;11.36;88.01;99646.09;5052768;28;45714;-69
2022/01/04 05:04:23;;;;;;;;;0.00;0.00;;;;;11.34;87.81;99664.63;5060437;28;45574;-69
2022/01/04 05:06:48;;;;;;;;;0.00;0.00;;;;;11.35;87.88;99657.56;5048408;28;45815;-69
2022/01/04 05:09:14;;;;;;;;;0.00;0.00;;;;;11.34;87.84;99653.25;5045567;28;45297;-69
2022/01/04 05:11:39;;;;;;;;;0.00;0.00;;;;;11.27;87.79;99649.31;5046686;28;45789;-69
2022/01/04 05:14:04;;;;;;;;;0.00;0.00;;;;;11.20;87.99;99649.69;5049484;28;50891;-69
2022/01/04 05:16:30;;;;;;;;;0.00;0.00;;;;;11.11;87.93;99642.38;5037274;28;45621;-69
2022/01/04 05:18:55;;;;;;;;;0.00;0.00;;;;;11.11;87.95;99659.94;5053988;28;45418;-69
2022/01/04 05:21:21;;;;;;;;;0.00;0.00;;;;;11.09;88.22;99661.84;5048892;28;45660;-69
2022/01/04 05:23:46;;;;;;;;;0.00;0.00;;;;;11.06;87.84;99664.63;5043421;28;46205;-69
2022/01/04 05:26:11;;;;;;;;;0.00;0.00;;;;;11.04;87.96;99666.53;5053744;28;45387;-69
2022/01/04 05:28:38;;;;;;;;;0.25;0.00;;;;;11.00;87.80;99665.03;5038758;28;45383;-69
2022/01/04 05:31:04;;;;;;;;;2.00;0.50;;;;;10.96;88.29;99662.59;5041571;28;45340;-69
2022/01/04 05:33:29;;;;;;;;;1.00;0.00;;;;;10.91;87.61;99653.28;5042008;28;45289;-69
2022/01/04 05:35:55;;;;;;;;;0.00;0.00;;;;;10.96;88.31;99672.25;5044636;28;45581;-69
2022/01/04 05:38:21;;;;;;;;;1.00;0.00;;;;;10.94;87.83;99667.09;5043576;28;45524;-69
2022/01/04 05:40:46;;;;;;;;;0.00;0.00;;;;;10.93;87.65;99662.78;5048984;28;45431;-69
2022/01/04 05:43:13;;;;;;;;;0.00;0.00;;;;;10.91;87.99;99661.16;5055495;28;45435;-69
2022/01/04 05:45:39;;;;;;;;;0.00;0.00;;;;;10.90;87.90;99659.47;5054332;28;45512;-69
2022/01/04 05:48:04;;;;;;;;;1.50;0.50;;;;;10.84;88.09;99658.06;5054771;28;45406;-69
2022/01/04 05:50:30;;;;;;;;;1.00;0.00;;;;;10.84;88.29;99668.59;5057536;28;45336;-69
2022/01/04 05:52:55;;;;;;;;;0.00;0.00;;;;;10.84;87.87;99670.38;5052973;28;46005;-69
2022/01/04 05:55:21;;;;;;;;;0.00;0.00;;;;;10.83;88.20;99674.78;5051951;28;45575;-69
2022/01/04 05:57:46;;;;;;;;;0.00;0.00;;;;;10.84;87.91;99673.00;5040438;28;45573;-69
2022/01/04 06:00:12;;;;;;;;;1.00;0.00;;;;;10.84;88.27;99673.84;5040997;28;45900;-69
2022/01/04 06:02:37;;;;;;;;;0.25;0.00;;;;;10.85;87.71;99672.06;5041706;28;46116;-69
2022/01/04 06:05:03;;;;;;;;;1.25;0.00;;;;;10.86;87.78;99677.25;5044496;28;45313;-69
2022/01/04 06:07:29;;;;;;;;;0.50;0.50;;;;;10.85;87.78;99672.91;5040206;28;45441;-69
2022/01/04 06:09:55;;;;;;;;;1.00;0.00;;;;;10.91;87.91;99679.56;5042047;28;45320;-69
2022/01/04 06:14:58;;;;;;;;;1.00;0.00;;;;;10.79;87.34;99665.41;5048812;28;45657;-69
2022/01/04 06:17:28;;;;;;;;;0.25;0.25;;;;;10.82;87.35;99674.91;5066753;27;45593;-69
2022/01/04 06:19:55;;;;;;;;;0.00;0.00;;;;;10.81;87.53;99668.78;5056550;28;45276;-69
2022/01/04 06:22:21;;;;;;;;;0.00;0.00;;;;;10.83;87.96;99663.44;5058711;28;46011;-69
2022/01/04 06:24:47;;;;;;;;;0.00;0.00;;;;;10.85;87.88;99665.00;5053764;28;45770;-69
2022/01/04 06:27:12;;;;;;;;;0.50;0.50;;;;;10.86;87.68;99674.63;5056042;28;45571;-69
2022/01/04 06:29:39;;;;;;;;;1.00;0.00;;;;;10.89;87.84;99682.28;5048496;28;45567;-69
2022/01/04 06:32:05;;;;;;;;;0.00;0.00;;;;;10.91;87.89;99679.56;5051324;28;45987;-69
2022/01/04 06:34:31;;;;;;;;;0.25;0.25;;;;;10.93;87.87;99683.81;5052181;28;45343;-69
2022/01/04 06:36:56;;;;;;;;;1.00;0.00;;;;;10.94;87.77;99687.28;5053902;28;45414;-69
2022/01/04 06:39:21;;;;;;;;;0.00;0.00;;;;;11.00;87.76;99688.69;5052977;28;45523;-69
2022/01/04 06:41:47;;;;;;;;;2.00;0.75;;;;;10.93;87.58;99681.19;5060306;28;46237;-69
2022/01/04 06:44:12;;;;;;;;;2.00;0.75;;;;;11.00;87.53;99705.31;5054331;28;45308;-69
2022/01/04 06:46:38;;;;;;;;;1.75;1.00;;;;;11.00;87.72;99691.31;5054529;28;45415;-69
2022/01/04 06:49:04;;;;;;;;;2.50;1.00;;;;;11.01;87.55;99712.25;5049192;28;45339;-69
2022/01/04 06:51:29;;;;;;;;;1.50;1.50;;;;;11.02;87.33;99716.59;5053437;28;46065;-69
2022/01/04 06:53:55;;;;;;;;;3.25;1.00;;;;;11.02;87.31;99715.75;5054111;28;45403;-69
2022/01/04 06:56:20;;;;;;;;;1.00;1.00;;;;;10.96;87.34;99703.78;5053743;28;45344;-69
2022/01/04 06:58:46;;;;;;;;;1.50;1.50;;;;;11.01;87.25;99725.38;5055322;28;45622;-70
2022/01/04 07:01:11;;;;;;;;;1.00;0.00;;;;;11.00;87.16;99731.59;5058617;28;46163;-71
2022/01/04 07:03:36;;;;;;;;;3.00;1.00;;;;;10.96;87.01;99730.06;5053690;28;45392;-69
2022/01/04 07:06:02;;;;;;;;;3.00;1.00;;;;;11.00;87.20;99741.25;5053806;28;45531;-70
2022/01/04 07:08:27;;;;;;;;;4.00;1.00;;;;;10.93;86.72;99739.00;5053975;28;46119;-68
2022/01/04 07:10:52;;;;;;;;;1.50;1.50;;;;;10.98;87.07;99755.34;5063794;28;46267;-68
2022/01/04 07:13:18;;;;;;;;;0.50;0.50;;;;;10.98;86.71;99739.56;5054923;28;45654;-68
2022/01/04 07:15:45;;;;;;;;;1.25;1.25;;;;;10.95;86.93;99747.63;5054108;28;45364;-68
2022/01/04 07:18:11;;;;;;;;;1.00;1.00;;;;;10.98;86.49;99754.50;5053624;28;45701;-69
2022/01/04 07:20:36;;;;;;;;;3.00;1.25;;;;;10.96;86.74;99754.59;5053756;28;56571;-68
2022/01/04 07:23:01;;;;;;;;;2.75;1.75;;;;;10.96;86.59;99749.34;5058409;28;45407;-68
2022/01/04 07:25:27;;;;;;;;;3.00;1.50;;;;;10.95;86.52;99747.63;5057262;28;45396;-68
2022/01/04 07:27:53;;;;;;;;;3.00;3.00;;;;;10.95;86.56;99749.41;5054843;28;45314;-68
2022/01/04 07:30:18;;;;;;;;;4.00;3.00;;;;;10.93;86.61;99749.53;5060023;28;47522;-68
2022/01/04 07:32:44;;;;;;;;;4.00;4.00;;;;;10.93;86.74;99756.56;5052402;28;52148;-68
2022/01/04 07:35:09;;;;;;;;;2.50;2.50;;;;;10.92;86.86;99760.13;5053764;28;45422;-68
2022/01/04 07:37:35;;;;;;;;;4.75;4.75;;;;;10.91;86.78;99756.66;5056973;28;45462;-68
2022/01/04 07:40:00;;;;;;;;;6.00;3.00;;;;;10.90;86.69;99762.00;5054581;28;46111;-68
2022/01/04 07:42:25;;;;;;;;;6.00;4.25;;;;;10.85;86.81;99764.91;5057570;28;45546;-68
2022/01/04 07:44:51;;;;;;;;;3.00;3.00;;;;;10.91;86.68;99774.19;5053404;28;45727;-68
2022/01/04 07:47:17;;;;;;;;;6.75;3.00;;;;;10.90;86.72;99769.88;5053315;28;45260;-68
2022/01/04 07:49:42;;;;;;;;;6.00;3.50;;;;;10.91;86.77;99784.72;5053068;28;45468;-68
2022/01/04 07:52:07;;;;;;;;;4.75;4.00;;;;;10.86;86.76;99790.25;5054473;28;53284;-68
2022/01/04 07:54:33;;;;;;;;;6.25;3.75;;;;;10.93;87.06;99794.22;5053036;28;45461;-68
2022/01/04 07:56:58;;;;;;;;;5.25;3.00;;;;;10.94;86.90;99795.91;5059072;28;45608;-68
2022/01/04 07:59:28;;;;;;;;;5.75;3.25;;;;;10.96;86.67;99801.06;5052183;28;63957;-68
2022/01/04 08:01:53;;;;;;;;;7.75;3.75;;;;;10.86;86.54;99784.16;5053167;28;45598;-68
2022/01/04 08:04:18;;;;;;;;;3.25;3.25;;;;;10.95;86.43;99815.16;5054916;28;45434;-68
2022/01/04 08:06:43;;;;;;;;;6.75;3.75;;;;;10.96;86.28;99830.84;5052773;28;45415;-68
2022/01/04 08:09:09;;;;;;;;;2.75;2.50;;;;;10.96;86.57;99832.59;5052601;28;45631;-68
2022/01/04 08:11:34;;;;;;;;;5.50;3.00;;;;;10.96;86.42;99846.63;5053073;28;46376;-68
2022/01/04 08:13:59;;;;;;;;;3.00;3.00;;;;;10.95;86.40;99846.69;5052745;28;45414;-68
2022/01/04 08:16:25;;;;;;;;;2.75;2.75;;;;;10.97;86.15;99856.19;5053865;28;45567;-68
2022/01/04 08:18:50;;;;;;;;;3.50;3.50;;;;;11.00;86.28;99859.56;5053586;28;46137;-68
2022/01/04 08:21:15;;;;;;;;;4.75;3.00;;;;;11.01;86.33;99869.16;5052238;28;45436;-68
2022/01/04 08:23:41;;;;;;;;;5.00;3.00;;;;;11.01;86.40;99869.97;5052750;28;45558;-70
2022/01/04 08:26:06;;;;;;;;;4.50;3.00;;;;;11.04;86.17;99869.81;5052836;28;45667;-68
2022/01/04 08:28:31;;;;;;;;;2.00;2.00;;;;;11.00;86.26;99865.66;5052706;28;45993;-70
2022/01/04 08:30:57;;;;;;;;;3.00;1.50;;;;;11.03;86.22;99856.78;5054765;28;45553;-68
2022/01/04 08:33:22;;;;;;;;;2.00;2.00;;;;;11.11;86.21;99857.16;5058293;28;45917;-69
2022/01/04 08:35:48;;;;;;;;;6.25;3.00;;;;;11.12;86.15;99856.22;5058769;28;45494;-69
2022/01/04 08:38:13;;;;;;;;;2.75;2.75;;;;;11.08;86.21;99849.47;5052087;28;48366;-69
2022/01/04 08:40:39;;;;;;;;;2.00;2.00;;;;;11.11;85.96;99867.66;5052180;28;45508;-69
2022/01/04 08:43:05;;;;;;;;;3.00;3.00;;;;;11.18;85.84;99877.75;5054434;28;47454;-69
2022/01/04 08:45:31;;;;;;;;;3.00;3.00;;;;;11.19;85.99;99881.22;5052420;28;45496;-69
2022/01/04 08:47:56;;;;;;;;;3.00;2.00;;;;;11.27;85.71;99884.22;5051868;28;46267;-69
2022/01/04 08:50:22;;;;;;;;;4.00;2.00;;;;;11.30;86.08;99884.06;5051788;28;45431;-69
2022/01/04 08:52:54;;;;;;;;;7.00;3.00;;;;;11.27;86.12;99878.13;5055244;28;45413;-69
2022/01/04 08:55:19;;;;;;;;;1.50;1.50;;;;;11.32;85.83;99905.84;5054286;28;45490;-69
2022/01/04 08:57:44;;;;;;;;;3.00;2.25;;;;;11.33;85.71;99904.94;5056097;28;46285;-69
2022/01/04 09:00:11;;;;;;;;;2.00;2.00;;;;;11.32;85.50;99905.84;5055671;28;45768;-69
2022/01/04 09:02:36;;;;;;;;;2.75;2.75;;;;;11.25;85.68;99880.84;5058980;28;45454;-69
2022/01/04 09:05:03;;;;;;;;;4.75;2.00;;;;;11.31;85.72;99892.78;5055526;28;45477;-69
2022/01/04 09:07:28;;;;;;;;;2.50;2.00;;;;;11.29;85.51;99885.00;5056123;28;47563;-69
2022/01/04 09:09:54;;;;;;;;;2.00;2.00;;;;;11.27;85.34;99900.00;5057058;28;45438;-69
2022/01/04 09:12:23;;;;;;;;;6.50;3.25;;;;;11.27;85.65;99910.53;5055918;28;45625;-69
2022/01/04 09:14:57;;;;;;;;;6.25;3.00;;;;;11.18;85.43;99911.94;5055442;28;45325;-69
2022/01/04 09:20:10;;;;;;;;;4.75;2.25;;;;;11.23;85.49;99938.81;5055205;28;45816;-69
2022/01/04 09:22:36;;;;;;;;;3.75;2.75;;;;;11.23;85.33;99928.28;5056137;28;45628;-69
2022/01/04 09:25:02;;;;;;;;;198.00;160.00;;;;;11.24;85.21;99929.13;5057390;28;45748;-69
2022/01/04 09:27:29;;;;;;;;;1.00;1.00;;;;;11.24;85.31;99918.63;5043547;28;45496;-69
2022/01/04 09:29:55;;;;;;;;;1.75;0.00;;;;;11.19;84.99;99908.38;5053211;28;45720;-68
2022/01/04 09:32:21;;;;;;;;;1.00;1.00;;;;;11.25;85.22;99912.41;5045271;28;45626;-68
2022/01/04 09:34:46;;;;;;;;;2.50;1.00;;;;;11.26;84.98;99910.63;5037174;28;45619;-68
2022/01/04 09:37:12;;;;;;;;;0.75;0.75;;;;;11.07;85.30;99876.69;5041270;28;45955;-68
2022/01/04 09:39:38;;;;;;;;;1.00;1.00;;;;;11.26;84.84;99916.72;5044727;28;45769;-68
2022/01/04 09:42:03;;;;;;;;;1.00;1.00;;;;;11.28;84.98;99924.56;5047778;28;46481;-69
2022/01/04 09:44:29;;;;;;;;;4.00;1.00;;;;;11.29;85.40;99924.47;5042747;28;45525;-69
2022/01/04 09:46:55;;;;;;;;;4.50;3.75;;;;;11.31;85.37;99927.00;5053385;28;46189;-69
2022/01/04 09:49:21;;;;;;;;;4.00;4.00;;;;;11.31;85.09;99922.56;5039855;28;45873;-69
2022/01/04 09:51:48;;;;;;;;;2.75;1.50;;;;;11.34;85.25;99924.19;5042879;28;45557;-69
2022/01/04 09:54:18;;;;;;;;;2.00;2.00;;;;;11.33;84.48;99910.19;5045453;28;45534;-69
2022/01/04 09:56:43;;;;;;;;;3.00;3.00;;;;;11.33;84.73;99901.44;5041339;28;45623;-69
2022/01/04 09:59:08;;;;;;;;;3.25;3.25;;;;;11.29;84.59;99916.56;5040270;28;45397;-68
2022/01/04 10:01:37;;;;;;;;;2.75;2.75;;;;;11.28;84.53;99932.44;5038731;28;45371;-68
2022/01/04 10:04:03;;;;;;;;;3.50;2.50;;;;;11.27;85.01;99936.00;5051037;28;45399;-69
2022/01/04 10:06:28;;;;;;;;;6.75;2.50;;;;;11.28;85.11;99941.19;5050042;28;47372;-69
2022/01/04 10:09:04;;;;;;;;;90.75;65.50;;;;;11.28;84.55;99938.56;5049991;28;45475;-69
2022/01/04 10:11:35;;;;;;;;;2.75;2.50;;;;;11.27;84.45;99936.84;5050208;28;45362;-68
2022/01/04 10:14:25;;;;;;;;;2.00;2.00;;;;;11.26;84.64;99961.44;5049610;28;45605;-69
2022/01/04 10:16:55;;;;;;;;;2.00;2.00;;;;;11.25;84.52;99959.75;5047392;28;45489;-68
2022/01/04 10:19:54;;;;;;;;;2.50;2.00;;;;;11.29;85.22;99971.81;5051275;28;45416;-69
2022/01/04 10:22:24;;;;;;;;;3.50;2.50;;;;;11.31;84.72;99972.53;4990049;28;45498;-68
2022/01/04 10:25:15;;;;;;;;;2.00;2.00;;;;;11.32;85.17;99976.03;5001743;28;45490;-69
2022/01/04 10:27:42;;;;;;;;;5.50;2.00;;;;;11.35;84.91;99975.84;4982413;28;47147;-69
2022/01/04 10:30:23;;;;;;;;;2.00;2.00;;;;;11.37;84.74;99979.22;4984218;28;45405;-69
2022/01/04 10:33:02;;;;;;;;;3.50;3.00;;;;;11.37;84.71;99966.94;4992269;28;45667;-70
2022/01/04 10:35:28;;;;;;;;;4.00;2.00;;;;;11.37;83.67;99966.94;4992697;28;45553;-69
2022/01/04 10:37:55;;;;;;;;;2.75;2.75;;;;;11.36;84.06;99956.50;4989669;28;46781;-68
2022/01/04 10:40:21;;;;;;;;;4.00;3.00;;;;;11.40;84.64;99950.97;4987161;28;45474;-68
2022/01/04 10:42:47;;;;;;;;;4.00;2.50;;;;;11.42;84.22;99949.09;4992995;28;45402;-68
2022/01/04 10:45:26;;;;;;;;;5.75;3.25;;;;;11.46;84.35;99947.97;4988699;28;45436;-69
2022/01/04 10:47:52;;;;;;;;;7.25;3.00;;;;;11.50;84.21;99957.38;4986964;28;45896;-68
2022/01/04 10:50:34;;;;;;;;;6.50;2.50;;;;;11.53;83.83;99945.81;4981816;28;45537;-68
2022/01/04 10:53:01;;;;;;;;;3.75;3.00;;;;;11.55;83.71;99936.06;4992717;28;45396;-68
2022/01/04 10:55:34;;;;;;;;;5.00;3.25;;;;;11.53;83.62;99918.66;4993177;28;45380;-68
2022/01/04 10:58:00;;;;;;;;;5.75;3.00;;;;;11.64;83.72;99930.25;5014081;28;48312;-68
2022/01/04 11:00:26;;;;;;;;;4.25;3.00;;;;;11.70;84.20;99932.53;5043415;28;45975;-68
2022/01/04 11:02:52;;;;;;;;;7.00;4.00;;;;;11.84;83.85;99938.75;5048539;28;45509;-68
2022/01/04 11:05:20;;;;;;;;;7.50;5.00;;;;;11.91;83.57;99940.94;5050773;28;49650;-68
2022/01/04 11:08:03;;;;;;;;;7.25;3.75;;;;;12.00;83.19;99942.13;5038552;28;46117;-68
2022/01/04 11:10:32;;;;;;;;;5.00;4.00;;;;;11.98;82.61;99936.97;5052420;28;46127;-69
2022/01/04 11:12:58;;;;;;;;;4.00;4.00;;;;;11.91;82.69;99933.03;5045798;28;45377;-68
2022/01/04 11:15:27;;;;;;;;;2.75;1.75;;;;;11.85;82.49;99930.78;5039996;28;45506;-68
2022/01/04 11:17:53;;;;;;;;;2.75;2.00;;;;;11.84;82.67;99933.47;5048763;28;45348;-69
2022/01/04 11:20:19;;;;;;;;;3.00;3.00;;;;;11.78;82.45;99929.41;5049045;28;45662;-69
2022/01/04 11:22:47;;;;;;;;;2.25;2.00;;;;;11.79;83.12;99939.00;5051480;28;45415;-69
2022/01/04 11:25:16;;;;;;;;;5.00;3.25;;;;;11.76;82.74;99933.94;5039824;28;45532;-69
2022/01/04 11:27:42;;;;;;;;;3.75;3.25;;;;;11.75;83.21;99940.97;5053710;28;45387;-68
2022/01/04 11:30:20;;;;;;;;;8.75;7.75;;;;;11.73;83.10;99950.75;5025884;28;50106;-69
2022/01/04 11:32:53;;;;;;;;;9.00;6.75;;;;;11.72;83.09;99953.47;5021063;28;46859;-69
2022/01/04 11:35:22;;;;;;;;;5.00;4.00;;;;;11.72;82.91;99953.47;5024973;28;46210;-69